Time;durP1;ratioP1;P1;durP2;ratioP2;P2;SDS_P1;SDS_P2;PMS_P1;PMS_P2;Temp;Humidity;BMP_temperature;BMP_pressure;BME280_temperature;BME280_humidity;BME280_pressure;Samples;Min_cycle;Max_cycle;Signal;HPM_P1;HPM_P2
2021/12/20 00:01:08;;;;;;;8.40;3.25;;;22.70;47.00;;;;;;5015613;28;20899;-62
2021/12/20 00:03:34;;;;;;;7.40;3.22;;;22.70;47.00;;;;;;5015420;28;20147;-62
2021/12/20 00:05:59;;;;;;;10.77;3.95;;;22.70;46.90;;;;;;5013537;28;20034;-62
2021/12/20 00:08:26;;;;;;;10.30;3.75;;;22.60;47.00;;;;;;5015606;28;20033;-61
2021/12/20 00:10:51;;;;;;;8.00;3.75;;;22.60;47.00;;;;;;5014230;28;33176;-62
2021/12/20 00:13:17;;;;;;;7.60;3.00;;;22.60;47.00;;;;;;5013603;28;20072;-61
2021/12/20 00:15:44;;;;;;;8.10;3.10;;;22.60;47.00;;;;;;5013724;28;20038;-61
2021/12/20 00:18:09;;;;;;;8.20;3.60;;;22.60;47.00;;;;;;5014537;28;20052;-62
2021/12/20 00:20:35;;;;;;;13.10;3.50;;;22.50;47.00;;;;;;5013375;28;20480;-61
2021/12/20 00:23:01;;;;;;;11.32;3.47;;;22.50;46.90;;;;;;5012445;28;20131;-62
2021/12/20 00:25:26;;;;;;;11.93;3.45;;;22.50;46.90;;;;;;5012476;28;33477;-61
2021/12/20 00:27:52;;;;;;;7.65;2.85;;;22.50;46.80;;;;;;5011548;28;20033;-61
2021/12/20 00:30:17;;;;;;;12.30;2.85;;;22.50;46.80;;;;;;5019729;28;20508;-61
2021/12/20 00:32:43;;;;;;;8.30;3.55;;;22.40;46.70;;;;;;5017967;28;20464;-62
2021/12/20 00:35:09;;;;;;;6.45;3.13;;;22.40;46.60;;;;;;5014106;28;20076;-60
2021/12/20 00:40:23;;;;;;;10.18;3.38;;;22.40;46.70;;;;;;5019267;28;20087;-62
2021/12/20 00:42:53;;;;;;;8.45;3.08;;;22.40;46.70;;;;;;5016041;28;20053;-61
2021/12/20 00:45:20;;;;;;;8.18;2.90;;;22.30;46.70;;;;;;5016287;28;20117;-62
2021/12/20 00:47:47;;;;;;;6.38;2.80;;;22.30;46.60;;;;;;5015627;28;20038;-62
2021/12/20 00:50:14;;;;;;;7.32;2.92;;;22.30;46.60;;;;;;5015055;28;20521;-61
2021/12/20 00:52:42;;;;;;;7.03;2.83;;;22.30;46.50;;;;;;5014911;28;33116;-62
2021/12/20 00:55:09;;;;;;;9.27;3.00;;;22.30;46.70;;;;;;5018978;28;20037;-60
2021/12/20 00:57:35;;;;;;;7.15;3.10;;;22.30;46.70;;;;;;5050265;28;20539;-62
2021/12/20 01:00:01;;;;;;;8.70;2.85;;;22.30;46.50;;;;;;5015266;28;20125;-62
2021/12/20 01:02:26;;;;;;;9.25;2.95;;;22.20;46.50;;;;;;5016761;28;20041;-62
2021/12/20 01:04:52;;;;;;;10.60;3.42;;;22.20;46.50;;;;;;5017418;28;20531;-61
2021/12/20 01:07:18;;;;;;;6.75;2.28;;;22.20;47.20;;;;;;5015230;28;33140;-62
2021/12/20 01:09:43;;;;;;;7.18;2.47;;;22.20;46.50;;;;;;5016759;28;21395;-62
2021/12/20 01:12:16;;;;;;;7.63;3.25;;;22.20;46.40;;;;;;5016327;28;20417;-62
2021/12/20 01:14:43;;;;;;;8.73;3.00;;;22.20;46.40;;;;;;5028337;28;20606;-62
2021/12/20 01:17:09;;;;;;;8.02;3.00;;;22.10;46.30;;;;;;5016219;28;20156;-61
2021/12/20 01:19:36;;;;;;;6.88;2.85;;;22.10;46.30;;;;;;5014042;28;32910;-62
2021/12/20 01:22:03;;;;;;;7.22;2.75;;;22.10;46.30;;;;;;5031276;28;20042;-62
2021/12/20 01:24:29;;;;;;;8.25;2.80;;;22.10;46.30;;;;;;5017044;28;20084;-62
2021/12/20 01:26:55;;;;;;;6.70;2.78;;;22.10;46.30;;;;;;5016585;28;20065;-63
2021/12/20 01:29:21;;;;;;;5.85;2.33;;;22.10;46.20;;;;;;5015322;28;20041;-62
2021/12/20 01:31:46;;;;;;;4.57;2.40;;;22.10;46.30;;;;;;5017441;28;20041;-61
2021/12/20 01:34:12;;;;;;;8.13;2.65;;;22.00;46.30;;;;;;5013141;28;23250;-62
2021/12/20 01:36:38;;;;;;;7.30;2.60;;;22.10;46.20;;;;;;5019599;28;20095;-61
2021/12/20 01:39:04;;;;;;;7.07;2.85;;;22.00;46.30;;;;;;5015343;28;20034;-61
2021/12/20 01:41:30;;;;;;;7.45;2.40;;;22.00;46.20;;;;;;5015963;28;20037;-62
2021/12/20 01:43:56;;;;;;;7.68;3.20;;;22.00;46.20;;;;;;5017474;28;20519;-62
2021/12/20 01:46:22;;;;;;;7.60;2.75;;;22.00;46.10;;;;;;5016191;28;20053;-61
2021/12/20 01:48:48;;;;;;;7.05;2.72;;;22.00;46.90;;;;;;5014068;28;35683;-62
2021/12/20 01:53:42;;;;;;;5.45;2.42;;;22.00;46.20;;;;;;5014735;28;20456;-62
2021/12/20 01:56:09;;;;;;;8.80;2.72;;;22.00;46.20;;;;;;5012378;28;20034;-60
2021/12/20 01:58:35;;;;;;;6.05;2.22;;;22.00;46.20;;;;;;5017565;28;20052;-61
2021/12/20 02:03:39;;;;;;;8.40;2.97;;;21.90;46.20;;;;;;5015308;28;33090;-62
2021/12/20 02:06:12;;;;;;;9.57;2.75;;;21.90;46.20;;;;;;5013600;28;20055;-62
2021/12/20 02:08:39;;;;;;;6.95;2.72;;;21.90;46.30;;;;;;5016951;28;20631;-62
2021/12/20 02:11:10;;;;;;;8.18;3.00;;;21.90;46.30;;;;;;5013098;28;20388;-62
2021/12/20 02:13:37;;;;;;;5.93;2.25;;;21.90;46.40;;;;;;5018874;28;20046;-62
2021/12/20 02:16:03;;;;;;;6.70;2.83;;;21.90;46.40;;;;;;5011217;28;33393;-62
2021/12/20 02:18:30;;;;;;;6.22;2.58;;;21.80;46.30;;;;;;5017057;28;20033;-61
2021/12/20 02:20:57;;;;;;;6.28;2.17;;;21.80;46.30;;;;;;5014199;28;20382;-62
2021/12/20 02:23:23;;;;;;;6.28;2.53;;;21.80;46.30;;;;;;5017627;28;20080;-62
2021/12/20 02:25:49;;;;;;;4.65;2.00;;;21.80;46.20;;;;;;5013677;28;20034;-61
2021/12/20 02:28:17;;;;;;;8.93;2.90;;;21.80;46.30;;;;;;5014526;28;20113;-61
2021/12/20 02:38:45;;;;;;;;;;;21.70;46.20;;;;;;5016446;28;20103;-62
2021/12/20 02:41:26;;;;;;;7.90;2.60;;;21.70;46.10;;;;;;5015603;28;19925;-62
2021/12/20 02:44:17;;;;;;;5.68;2.50;;;21.70;46.40;;;;;;5013342;28;30613;-60
2021/12/20 02:49:14;;;;;;;6.50;2.30;;;21.70;46.30;;;;;;5013210;28;20138;-59
2021/12/20 02:51:40;;;;;;;7.38;2.42;;;21.60;46.20;;;;;;5017418;28;20037;-61
2021/12/20 02:54:08;;;;;;;5.05;2.55;;;21.60;46.20;;;;;;5014989;28;20434;-61
2021/12/20 02:56:34;;;;;;;6.45;2.80;;;21.60;46.20;;;;;;5012168;28;20200;-61
2021/12/20 02:59:00;;;;;;;6.70;2.58;;;21.60;46.20;;;;;;5011581;28;33247;-62
2021/12/20 03:01:25;;;;;;;6.00;2.22;;;21.60;46.20;;;;;;5038696;28;20042;-61
2021/12/20 03:03:55;;;;;;;6.43;2.13;;;21.60;46.20;;;;;;5012552;28;20064;-61
2021/12/20 03:06:35;;;;;;;6.05;2.33;;;21.60;46.20;;;;;;5011294;28;20439;-61
2021/12/20 03:09:01;;;;;;;6.50;2.35;;;21.60;46.10;;;;;;5014531;28;20080;-62
2021/12/20 03:11:27;;;;;;;7.35;2.55;;;21.60;46.20;;;;;;5008676;28;20418;-61
2021/12/20 03:14:04;;;;;;;7.13;2.60;;;21.60;46.20;;;;;;5011440;28;33485;-61
2021/12/20 03:16:30;;;;;;;7.72;2.67;;;21.60;46.20;;;;;;5011542;28;20560;-62
2021/12/20 03:18:55;;;;;;;6.40;2.33;;;21.50;46.00;;;;;;5013264;28;20091;-61
2021/12/20 03:21:21;;;;;;;7.18;2.03;;;21.50;46.10;;;;;;5009565;28;20049;-61
2021/12/20 03:23:47;;;;;;;5.43;2.10;;;21.50;46.10;;;;;;5012599;28;20049;-61
2021/12/20 03:26:12;;;;;;;6.57;2.17;;;21.50;46.10;;;;;;5013095;28;32915;-61
2021/12/20 03:28:38;;;;;;;4.82;1.90;;;21.50;46.10;;;;;;5013101;28;20501;-62
2021/12/20 03:31:03;;;;;;;6.47;2.42;;;21.50;46.20;;;;;;5017247;28;20045;-61
2021/12/20 03:33:29;;;;;;;5.68;1.92;;;21.50;46.10;;;;;;5013116;28;20408;-61
2021/12/20 03:35:55;;;;;;;5.93;2.40;;;21.50;46.10;;;;;;5012881;28;20136;-60
2021/12/20 03:38:20;;;;;;;7.47;2.20;;;21.50;46.10;;;;;;5014156;28;20077;-62
2021/12/20 03:40:46;;;;;;;7.78;2.13;;;21.50;46.20;;;;;;5010334;28;25448;-60
2021/12/20 03:43:13;;;;;;;6.60;2.20;;;21.50;46.10;;;;;;5014418;28;20060;-62
2021/12/20 03:45:40;;;;;;;5.15;2.00;;;21.40;46.10;;;;;;5013617;28;20061;-62
2021/12/20 03:48:06;;;;;;;4.80;2.05;;;21.40;46.10;;;;;;5013677;28;20038;-61
2021/12/20 03:50:32;;;;;;;5.68;2.17;;;21.40;46.00;;;;;;5012904;28;20042;-62
2021/12/20 03:52:57;;;;;;;6.45;2.17;;;21.40;46.10;;;;;;5013584;28;20049;-61
2021/12/20 03:55:23;;;;;;;6.35;2.05;;;21.40;46.10;;;;;;5015197;28;23539;-62
2021/12/20 03:57:48;;;;;;;4.53;1.77;;;21.40;46.10;;;;;;5012060;28;20121;-61
2021/12/20 04:00:15;;;;;;;5.15;1.90;;;21.40;46.10;;;;;;5011516;28;20091;-62
2021/12/20 04:02:44;;;;;;;6.10;2.40;;;21.40;46.10;;;;;;5015399;28;20029;-61
2021/12/20 04:05:12;;;;;;;4.20;1.50;;;21.40;46.10;;;;;;5016275;28;20052;-62
2021/12/20 04:07:38;;;;;;;4.22;1.63;;;21.40;46.10;;;;;;5015530;28;20064;-62
2021/12/20 04:10:05;;;;;;;4.88;2.00;;;21.30;46.00;;;;;;5016072;28;23663;-61
2021/12/20 04:12:30;;;;;;;5.40;1.83;;;21.30;46.00;;;;;;5018438;28;20143;-61
2021/12/20 04:14:56;;;;;;;6.55;2.10;;;21.30;46.00;;;;;;5020767;28;20061;-61
2021/12/20 04:17:22;;;;;;;4.63;2.03;;;21.30;46.10;;;;;;5017481;28;20104;-61
2021/12/20 04:19:47;;;;;;;4.50;1.75;;;21.30;46.00;;;;;;5017545;28;20056;-61
2021/12/20 04:22:15;;;;;;;4.25;1.77;;;21.30;46.00;;;;;;5013220;28;30553;-62
2021/12/20 04:24:42;;;;;;;3.20;1.65;;;21.30;46.00;;;;;;5019051;28;20889;-62
2021/12/20 04:27:07;;;;;;;4.55;1.85;;;21.30;46.00;;;;;;5020224;28;20839;-62
2021/12/20 04:29:33;;;;;;;5.07;2.33;;;21.20;46.00;;;;;;5018516;28;20072;-61
2021/12/20 04:31:59;;;;;;;5.45;1.80;;;21.20;46.00;;;;;;5019621;28;20045;-62
2021/12/20 04:34:25;;;;;;;5.35;1.70;;;21.20;45.90;;;;;;5022531;28;20040;-62
2021/12/20 04:36:51;;;;;;;5.72;2.10;;;21.20;46.00;;;;;;5015818;28;35504;-60
2021/12/20 04:39:20;;;;;;;5.18;1.98;;;21.20;46.00;;;;;;5015872;28;20128;-62
2021/12/20 04:41:46;;;;;;;3.53;1.50;;;21.20;46.00;;;;;;5017869;28;20116;-62
2021/12/20 04:44:11;;;;;;;3.72;1.70;;;21.20;46.00;;;;;;5013752;28;20109;-61
2021/12/20 04:46:37;;;;;;;4.85;2.00;;;21.20;46.00;;;;;;5018300;28;20045;-61
2021/12/20 04:49:03;;;;;;;4.07;1.75;;;21.20;46.00;;;;;;5017235;28;20400;-61
2021/12/20 04:51:28;;;;;;;3.78;1.88;;;21.20;46.70;;;;;;5015699;28;33119;-62
2021/12/20 04:53:54;;;;;;;4.57;1.88;;;21.20;46.00;;;;;;5015531;28;20049;-60
2021/12/20 04:56:19;;;;;;;7.00;2.05;;;21.20;46.00;;;;;;5020299;28;20060;-60
2021/12/20 04:58:45;;;;;;;7.50;1.80;;;21.20;46.00;;;;;;5017079;28;20030;-61
2021/12/20 05:01:11;;;;;;;4.35;2.03;;;21.20;46.00;;;;;;5012451;28;20489;-61
2021/12/20 05:03:36;;;;;;;5.55;1.88;;;21.10;46.00;;;;;;5019218;28;20045;-61
2021/12/20 05:06:02;;;;;;;5.85;2.05;;;21.10;46.00;;;;;;5010956;28;23128;-61
2021/12/20 05:08:34;;;;;;;7.38;2.00;;;21.10;45.90;;;;;;5015985;28;20045;-61
2021/12/20 05:11:06;;;;;;;7.43;1.85;;;21.10;46.70;;;;;;5014635;28;20398;-61
2021/12/20 05:13:32;;;;;;;9.57;2.47;;;21.10;45.90;;;;;;5031499;28;20053;-61
2021/12/20 05:15:58;;;;;;;7.13;2.38;;;21.10;46.00;;;;;;5013821;28;20817;-61
2021/12/20 05:18:23;;;;;;;9.02;2.10;;;21.10;46.00;;;;;;5015844;28;20490;-61
2021/12/20 05:20:49;;;;;;;9.18;2.00;;;21.10;46.00;;;;;;5012346;28;33583;-62
2021/12/20 05:23:14;;;;;;;8.45;2.00;;;21.10;46.00;;;;;;5015157;28;20068;-62
2021/12/20 05:25:40;;;;;;;10.18;2.10;;;21.10;46.20;;;;;;5019334;28;20132;-62
2021/12/20 05:28:08;;;;;;;8.73;2.13;;;21.00;46.10;;;;;;5008191;28;20052;-61
2021/12/20 05:30:34;;;;;;;7.47;1.52;;;21.00;46.10;;;;;;5015814;28;20060;-61
2021/12/20 05:33:00;;;;;;;6.47;2.20;;;21.00;46.20;;;;;;5015024;28;20041;-62
2021/12/20 05:35:25;;;;;;;4.30;1.45;;;21.00;46.20;;;;;;5014510;28;20574;-61
2021/12/20 05:37:51;;;;;;;8.57;2.03;;;21.00;47.10;;;;;;5013432;28;20508;-62
2021/12/20 05:40:17;;;;;;;5.95;2.05;;;21.10;46.50;;;;;;5014007;28;20152;-62
2021/12/20 05:42:45;;;;;;;7.00;1.65;;;21.00;46.40;;;;;;5014396;28;20045;-62
2021/12/20 05:45:11;;;;;;;4.60;1.77;;;21.00;46.50;;;;;;5013600;28;20038;-62
2021/12/20 05:47:36;;;;;;;6.68;1.50;;;21.00;46.50;;;;;;5015832;28;20503;-62
2021/12/20 05:50:03;;;;;;;4.57;1.58;;;21.10;46.70;;;;;;5011735;28;23130;-62
2021/12/20 05:52:28;;;;;;;8.60;1.80;;;21.10;46.70;;;;;;5014080;28;20038;-62
2021/12/20 05:54:54;;;;;;;5.00;1.60;;;21.00;46.80;;;;;;5016326;28;20080;-62
2021/12/20 05:57:20;;;;;;;5.43;1.70;;;21.00;46.90;;;;;;5012474;28;20069;-62
2021/12/20 05:59:45;;;;;;;5.00;1.58;;;21.00;47.00;;;;;;5017014;28;20029;-61
2021/12/20 06:02:11;;;;;;;5.78;1.80;;;21.00;47.10;;;;;;5016439;28;20101;-61
2021/12/20 06:04:36;;;;;;;3.63;1.45;;;21.00;47.00;;;;;;5014491;28;33443;-61
2021/12/20 06:07:02;;;;;;;8.13;1.88;;;21.00;46.90;;;;;;5014251;28;20045;-61
2021/12/20 06:09:28;;;;;;;6.88;1.75;;;21.00;46.90;;;;;;5044718;28;20052;-61
2021/12/20 06:11:59;;;;;;;3.83;1.90;;;21.00;46.90;;;;;;5016461;28;20089;-61
2021/12/20 06:14:25;;;;;;;5.25;1.67;;;21.00;46.90;;;;;;5016958;28;20084;-62
2021/12/20 06:16:51;;;;;;;3.53;1.70;;;21.00;47.10;;;;;;5014991;28;20049;-61
2021/12/20 06:19:17;;;;;;;4.00;1.40;;;21.00;47.30;;;;;;5016961;28;33323;-61
2021/12/20 06:21:42;;;;;;;4.22;1.40;;;21.00;47.10;;;;;;5012924;28;20065;-61
2021/12/20 06:24:08;;;;;;;3.75;1.48;;;21.00;47.20;;;;;;5010947;28;20568;-61
2021/12/20 06:26:33;;;;;;;5.45;1.30;;;21.00;47.30;;;;;;5015320;28;20482;-62
2021/12/20 06:28:59;;;;;;;6.90;1.52;;;21.00;47.40;;;;;;5014604;28;20540;-62
2021/12/20 06:31:24;;;;;;;6.55;1.67;;;21.00;47.30;;;;;;5014944;28;20536;-61
2021/12/20 06:33:50;;;;;;;4.45;1.27;;;21.00;47.20;;;;;;5009234;28;33917;-61
2021/12/20 06:36:18;;;;;;;6.20;1.50;;;21.00;47.30;;;;;;5016347;28;20056;-62
2021/12/20 06:38:45;;;;;;;3.45;1.50;;;21.00;47.20;;;;;;5011787;28;20134;-61
2021/12/20 06:41:12;;;;;;;5.47;1.40;;;21.00;47.20;;;;;;5015778;28;20116;-61
2021/12/20 06:43:38;;;;;;;5.13;1.40;;;21.00;47.10;;;;;;5014550;28;20069;-61
2021/12/20 06:46:04;;;;;;;4.32;1.55;;;21.00;47.10;;;;;;5012776;28;20072;-61
2021/12/20 06:48:29;;;;;;;4.53;1.42;;;21.00;46.90;;;;;;5012185;28;20034;-61
2021/12/20 06:50:55;;;;;;;4.00;1.52;;;21.00;46.80;;;;;;5013924;28;20057;-61
2021/12/20 06:53:21;;;;;;;5.93;1.45;;;21.00;46.70;;;;;;5014779;28;20397;-60
2021/12/20 06:55:46;;;;;;;4.10;1.33;;;21.00;46.60;;;;;;5011448;28;20547;-61
2021/12/20 06:58:12;;;;;;;5.70;1.38;;;21.00;46.70;;;;;;5014541;28;20037;-62
2021/12/20 07:00:37;;;;;;;3.97;1.20;;;21.00;46.80;;;;;;5011004;28;20041;-62
2021/12/20 07:03:03;;;;;;;5.80;1.42;;;21.00;47.00;;;;;;5012463;28;20037;-61
2021/12/20 07:05:29;;;;;;;4.35;1.27;;;21.00;47.10;;;;;;5012425;28;20042;-62
2021/12/20 07:07:54;;;;;;;2.72;1.17;;;21.00;47.10;;;;;;5011001;28;23149;-61
2021/12/20 07:10:20;;;;;;;2.65;1.27;;;21.10;47.10;;;;;;5015361;28;20037;-61
2021/12/20 07:12:46;;;;;;;4.60;1.40;;;21.10;47.10;;;;;;5013577;28;20053;-61
2021/12/20 07:15:14;;;;;;;3.75;1.40;;;21.10;47.20;;;;;;5014254;28;30946;-61
2021/12/20 07:17:40;;;;;;;4.70;1.30;;;21.10;47.10;;;;;;5016048;28;20041;-61
2021/12/20 07:20:07;;;;;;;4.20;1.42;;;21.10;47.10;;;;;;5014267;28;20737;-61
2021/12/20 07:22:32;;;;;;;6.22;2.05;;;21.10;46.90;;;;;;5014013;28;20045;-62
2021/12/20 07:24:59;;;;;;;3.72;1.40;;;21.10;46.80;;;;;;5013974;28;20413;-61
2021/12/20 07:27:26;;;;;;;2.97;1.30;;;21.10;46.70;;;;;;5015354;28;20041;-64
2021/12/20 07:29:51;;;;;;;3.08;1.30;;;21.10;46.70;;;;;;5013556;28;20163;-61
2021/12/20 07:32:17;;;;;;;3.45;1.33;;;21.10;46.70;;;;;;5013275;28;20053;-60
2021/12/20 07:34:43;;;;;;;3.75;1.27;;;21.10;46.60;;;;;;5014328;28;20033;-61
2021/12/20 07:37:08;;;;;;;5.80;1.42;;;21.10;46.60;;;;;;5016166;28;20038;-61
2021/12/20 07:39:34;;;;;;;4.78;1.40;;;21.10;46.60;;;;;;5011621;28;20045;-61
2021/12/20 07:42:00;;;;;;;3.25;1.40;;;21.10;46.60;;;;;;5004729;28;20510;-61
2021/12/20 07:44:26;;;;;;;8.27;1.80;;;21.10;46.90;;;;;;5009236;28;30504;-60
2021/12/20 07:46:52;;;;;;;6.47;1.77;;;21.10;47.00;;;;;;5011278;28;20552;-60
2021/12/20 07:49:18;;;;;;;2.95;1.30;;;21.10;47.00;;;;;;5040822;28;20038;-61
2021/12/20 07:51:44;;;;;;;2.72;1.25;;;21.10;47.00;;;;;;5012855;28;20045;-61
2021/12/20 07:54:10;;;;;;;4.07;1.48;;;21.20;47.20;;;;;;5010197;28;20045;-61
2021/12/20 07:56:35;;;;;;;2.97;1.38;;;21.20;47.10;;;;;;5013909;28;31002;-61
2021/12/20 07:59:01;;;;;;;4.72;1.48;;;21.20;47.10;;;;;;5013683;28;20037;-61
2021/12/20 08:01:27;;;;;;;3.53;1.65;;;21.20;47.10;;;;;;5015574;28;20029;-61
2021/12/20 08:03:53;;;;;;;4.72;1.63;;;21.20;47.00;;;;;;5013474;28;20037;-60
2021/12/20 08:06:19;;;;;;;5.78;1.90;;;21.20;46.90;;;;;;5012364;28;20041;-61
2021/12/20 08:08:45;;;;;;;3.83;1.40;;;21.10;46.80;;;;;;5014719;28;20309;-61
2021/12/20 08:11:11;;;;;;;3.90;1.58;;;21.10;46.80;;;;;;5009677;28;30776;-60
2021/12/20 08:13:44;;;;;;;4.00;1.40;;;21.10;46.70;;;;;;5013273;28;20135;-60
2021/12/20 08:16:14;;;;;;;4.57;1.90;;;21.20;46.70;;;;;;5012712;28;20049;-61
2021/12/20 08:18:41;;;;;;;4.25;1.52;;;21.20;46.70;;;;;;5014497;28;20048;-61
2021/12/20 08:21:08;;;;;;;4.07;1.77;;;21.20;46.60;;;;;;5015463;28;20051;-61
2021/12/20 08:23:33;;;;;;;4.85;1.65;;;21.20;46.60;;;;;;5011213;28;20061;-61
2021/12/20 08:25:59;;;;;;;2.17;1.23;;;21.20;46.50;;;;;;5013998;28;20603;-61
2021/12/20 08:28:25;;;;;;;2.72;1.30;;;21.20;46.50;;;;;;5014264;28;20173;-61
2021/12/20 08:30:50;;;;;;;3.25;1.55;;;21.20;46.40;;;;;;5015079;28;20042;-61
2021/12/20 08:33:16;;;;;;;3.70;1.48;;;21.20;46.40;;;;;;5012445;28;20041;-61
2021/12/20 08:35:42;;;;;;;3.83;1.60;;;21.20;46.30;;;;;;5011748;28;20045;-60
2021/12/20 08:38:08;;;;;;;3.92;1.42;;;21.20;46.30;;;;;;5013174;28;20041;-59
2021/12/20 08:40:34;;;;;;;5.78;1.83;;;21.20;46.20;;;;;;5003905;28;33533;-61
2021/12/20 08:43:01;;;;;;;3.03;1.55;;;21.20;46.30;;;;;;5012477;28;20042;-61
2021/12/20 08:45:27;;;;;;;4.85;1.75;;;21.20;46.30;;;;;;5010519;28;20424;-60
2021/12/20 08:47:53;;;;;;;3.13;1.40;;;21.30;46.40;;;;;;5012511;28;20045;-60
2021/12/20 08:50:21;;;;;;;5.78;1.70;;;21.30;46.30;;;;;;5009083;28;20042;-60
2021/12/20 08:52:47;;;;;;;5.40;1.63;;;21.30;46.40;;;;;;5014505;28;20533;-60
2021/12/20 08:55:13;;;;;;;3.45;1.60;;;21.30;46.30;;;;;;5011711;28;23191;-60
2021/12/20 08:57:39;;;;;;;4.53;1.58;;;21.30;46.40;;;;;;5047243;28;20548;-60
2021/12/20 09:00:09;;;;;;;5.00;1.55;;;21.30;46.30;;;;;;5016423;28;20749;-60
2021/12/20 09:02:36;;;;;;;5.30;1.80;;;21.30;46.40;;;;;;5014241;28;20160;-61
2021/12/20 09:05:03;;;;;;;4.82;1.50;;;21.30;46.30;;;;;;5014007;28;20033;-60
2021/12/20 09:07:29;;;;;;;5.85;1.65;;;21.30;46.30;;;;;;5043284;28;20828;-60
2021/12/20 09:09:54;;;;;;;7.07;1.58;;;21.30;46.30;;;;;;5012398;28;20042;-61
2021/12/20 09:12:20;;;;;;;3.88;1.20;;;21.40;46.40;;;;;;5014568;28;20056;-61
2021/12/20 09:14:47;;;;;;;5.18;1.85;;;21.40;46.30;;;;;;5015804;28;20076;-60
2021/12/20 09:17:13;;;;;;;4.95;1.90;;;21.40;46.30;;;;;;5013329;28;20061;-61
2021/12/20 09:19:39;;;;;;;9.02;1.98;;;21.40;46.30;;;;;;5027699;28;20393;-60
2021/12/20 09:22:06;;;;;;;7.22;1.88;;;21.40;46.20;;;;;;5011782;28;25337;-60
2021/12/20 09:24:35;;;;;;;6.25;2.17;;;21.40;46.30;;;;;;5016801;28;20033;-61
2021/12/20 09:27:02;;;;;;;10.05;2.60;;;21.40;46.20;;;;;;5013350;28;20033;-59
2021/12/20 09:29:28;;;;;;;10.00;1.98;;;21.40;46.30;;;;;;5014009;28;20120;-60
2021/12/20 09:31:54;;;;;;;11.50;2.38;;;21.40;46.30;;;;;;5011362;28;20088;-60
2021/12/20 09:34:19;;;;;;;7.65;2.00;;;21.50;46.30;;;;;;5045432;28;20057;-60
2021/12/20 09:36:45;;;;;;;5.25;2.10;;;21.40;46.30;;;;;;5011551;28;23208;-60
2021/12/20 09:39:11;;;;;;;7.07;2.40;;;21.50;46.40;;;;;;5014489;28;20080;-61
2021/12/20 09:44:09;;;;;;;9.25;2.58;;;21.50;46.40;;;;;;5013445;28;20053;-61
2021/12/20 09:46:35;;;;;;;11.80;2.85;;;21.50;46.40;;;;;;5013033;28;20049;-60
2021/12/20 09:49:02;;;;;;;10.75;2.63;;;21.50;46.40;;;;;;5017717;28;20084;-60
2021/12/20 09:51:28;;;;;;;7.93;3.05;;;21.50;46.30;;;;;;5011573;28;31366;-60
2021/12/20 09:53:56;;;;;;;7.65;2.50;;;21.60;46.40;;;;;;5014615;28;20575;-59
2021/12/20 09:56:27;;;;;;;14.93;2.95;;;21.60;46.50;;;;;;5009154;28;20026;-61
2021/12/20 09:58:54;;;;;;;;;;;21.60;46.60;;;;;;5016008;28;20449;-60
2021/12/20 10:01:21;;;;;;;13.02;2.58;;;21.60;47.00;;;;;;5012880;28;19921;-60
2021/12/20 10:03:48;;;;;;;13.45;3.15;;;21.60;47.00;;;;;;5010013;28;33855;-60
2021/12/20 10:06:14;;;;;;;11.50;2.63;;;21.60;47.10;;;;;;5012750;28;20041;-60
2021/12/20 10:08:50;;;;;;;16.25;3.45;;;21.60;47.30;;;;;;5011622;28;20527;-60
2021/12/20 10:11:21;;;;;;;11.40;3.10;;;21.70;47.50;;;;;;5012064;28;20910;-61
2021/12/20 10:13:46;;;;;;;;;;;21.70;47.70;;;;;;5015894;28;20046;-61
2021/12/20 10:16:18;;;;;;;17.13;3.42;;;21.70;47.80;;;;;;5014652;28;20261;-60
2021/12/20 10:18:45;;;;;;;11.20;2.60;;;21.70;47.70;;;;;;5013823;28;33218;-60
2021/12/20 10:21:11;;;;;;;11.50;3.42;;;21.70;47.70;;;;;;5016620;28;20077;-60
2021/12/20 10:23:45;;;;;;;12.38;3.10;;;21.70;47.80;;;;;;5014292;28;20076;-60
2021/12/20 10:26:19;;;;;;;14.45;2.80;;;21.70;47.80;;;;;;5012573;28;20079;-61
2021/12/20 10:28:47;;;;;;;10.60;2.80;;;21.70;47.70;;;;;;5011176;28;20091;-61
2021/12/20 10:31:16;;;;;;;10.00;2.97;;;21.70;47.60;;;;;;5015059;28;20147;-61
2021/12/20 10:33:51;;;;;;;11.73;2.78;;;21.70;47.70;;;;;;5014336;28;20180;-61
2021/12/20 10:36:17;;;;;;;9.68;2.47;;;21.80;47.50;;;;;;5018048;28;20033;-60
2021/12/20 10:38:44;;;;;;;15.45;3.42;;;21.70;47.50;;;;;;5016882;28;21378;-61
2021/12/20 10:41:17;;;;;;;10.57;2.70;;;21.80;47.50;;;;;;5013868;28;20045;-61
2021/12/20 10:43:53;;;;;;;11.88;3.17;;;21.70;47.40;;;;;;5015800;28;20045;-61
2021/12/20 10:46:26;;;;;;;8.93;2.67;;;21.80;47.40;;;;;;5011623;28;33148;-61
2021/12/20 10:48:59;;;;;;;10.70;2.53;;;21.70;47.30;;;;;;5011646;28;20029;-60
2021/12/20 10:51:28;;;;;;;12.20;2.65;;;21.80;47.40;;;;;;5015921;28;20263;-61
2021/12/20 10:54:01;;;;;;;11.50;2.60;;;21.80;48.10;;;;;;5015992;28;20398;-61
2021/12/20 10:56:29;;;;;;;11.55;2.72;;;21.80;47.40;;;;;;5011942;28;20025;-60
2021/12/20 10:58:56;;;;;;;8.07;2.80;;;21.80;47.30;;;;;;4998128;28;20038;-61
2021/12/20 11:01:46;;;;;;;13.77;3.10;;;21.70;47.20;;;;;;5008581;28;23352;-61
2021/12/20 11:04:15;;;;;;;13.70;3.00;;;21.80;47.20;;;;;;5014077;28;20058;-61
2021/12/20 11:09:26;;;;;;;11.73;2.70;;;21.70;47.00;;;;;;5013321;28;20456;-63
2021/12/20 11:11:57;;;;;;;11.50;2.70;;;21.70;47.00;;;;;;5011416;28;20069;-61
2021/12/20 11:14:28;;;;;;;10.80;2.63;;;21.80;47.00;;;;;;5010255;28;22896;-61
2021/12/20 11:16:55;;;;;;;;;;;21.80;47.10;;;;;;5017305;28;20370;-61
2021/12/20 11:19:38;;;;;;;16.85;2.80;;;21.70;47.20;;;;;;5010136;28;19932;-61
2021/12/20 11:22:19;;;;;;;20.85;4.13;;;21.70;47.30;;;;;;5015970;28;20044;-61
2021/12/20 11:24:46;;;;;;;11.65;3.08;;;21.70;47.30;;;;;;5015311;28;20649;-61
2021/12/20 11:27:18;;;;;;;10.43;3.03;;;21.70;47.30;;;;;;5014064;28;20037;-61
2021/12/20 11:29:45;;;;;;;11.43;2.70;;;21.70;47.30;;;;;;5014932;28;33152;-62
2021/12/20 11:32:13;;;;;;;10.73;2.70;;;21.70;47.20;;;;;;5013675;28;20084;-62
2021/12/20 11:34:41;;;;;;;10.32;2.55;;;21.80;47.30;;;;;;5011731;28;20041;-61
2021/12/20 11:37:09;;;;;;;11.93;2.97;;;21.70;47.10;;;;;;5013885;28;20055;-61
2021/12/20 11:39:34;;;;;;;11.35;2.90;;;21.70;47.10;;;;;;5013231;28;20520;-61
2021/12/20 11:42:00;;;;;;;8.77;2.42;;;21.80;47.10;;;;;;5008141;28;32827;-61
2021/12/20 11:44:29;;;;;;;12.27;2.70;;;21.70;46.90;;;;;;5014539;28;20559;-62
2021/12/20 11:47:13;;;;;;;13.15;2.60;;;21.70;46.90;;;;;;5015516;28;20049;-61
2021/12/20 11:49:39;;;;;;;14.27;3.50;;;21.80;46.90;;;;;;5013814;28;20064;-61
2021/12/20 11:52:17;;;;;;;16.13;2.88;;;21.70;46.90;;;;;;5012571;28;20045;-60
2021/12/20 11:54:53;;;;;;;9.30;2.88;;;21.70;46.70;;;;;;5015062;28;20063;-61
2021/12/20 11:57:28;;;;;;;9.63;2.67;;;21.70;46.70;;;;;;5008745;28;30545;-60
2021/12/20 11:59:59;;;;;;;10.90;3.13;;;21.70;46.70;;;;;;5012713;28;20493;-59
2021/12/20 12:02:39;;;;;;;11.02;2.33;;;21.70;46.70;;;;;;5013696;28;20045;-61
2021/12/20 12:05:14;;;;;;;8.38;2.47;;;21.70;46.70;;;;;;5016540;28;20115;-61
2021/12/20 12:07:41;;;;;;;11.02;3.10;;;21.70;47.40;;;;;;5014539;28;20076;-61
2021/12/20 12:10:17;;;;;;;9.52;2.63;;;21.70;46.80;;;;;;5009821;28;33617;-61
2021/12/20 12:12:46;;;;;;;7.75;2.70;;;21.70;46.80;;;;;;5013826;28;20060;-61
2021/12/20 12:15:28;;;;;;;7.57;2.65;;;21.70;46.80;;;;;;5012484;28;20059;-62
2021/12/20 12:18:02;;;;;;;11.35;2.90;;;21.70;46.80;;;;;;5011517;28;20080;-61
2021/12/20 12:20:37;;;;;;;8.77;2.63;;;21.70;46.80;;;;;;5012047;28;20045;-61
2021/12/20 12:23:10;;;;;;;9.48;2.42;;;21.70;46.80;;;;;;5011472;28;20688;-61
2021/12/20 12:25:43;;;;;;;10.05;2.40;;;21.70;46.80;;;;;;5012019;28;33331;-60
2021/12/20 12:28:10;;;;;;;11.30;2.60;;;21.70;46.80;;;;;;5015029;28;20042;-61
2021/12/20 12:30:36;;;;;;;12.27;2.85;;;21.70;46.80;;;;;;5016193;28;20385;-61
2021/12/20 12:33:02;;;;;;;5.97;2.30;;;21.70;46.70;;;;;;5016677;28;20088;-61
2021/12/20 12:35:41;;;;;;;8.02;2.45;;;21.70;46.70;;;;;;5018912;28;20070;-61
2021/12/20 12:38:26;;;;;;;8.27;2.50;;;21.70;46.70;;;;;;5017039;28;25781;-61
2021/12/20 12:41:12;;;;;;;11.57;2.58;;;21.70;46.70;;;;;;5015766;28;20029;-60
2021/12/20 12:44:03;;;;;;;8.55;2.33;;;21.70;46.60;;;;;;5015814;28;20123;-61
2021/12/20 12:46:35;;;;;;;7.80;2.15;;;21.70;46.60;;;;;;5013009;28;20045;-63
2021/12/20 12:49:21;;;;;;;9.40;2.35;;;21.70;46.60;;;;;;5016221;28;20107;-61
2021/12/20 12:51:48;;;;;;;8.38;1.75;;;21.70;46.50;;;;;;5014789;28;20521;-60
2021/12/20 12:54:32;;;;;;;16.17;2.33;;;21.70;46.60;;;;;;5014107;28;33350;-61
2021/12/20 12:57:13;;;;;;;6.70;2.10;;;21.60;46.50;;;;;;5017474;28;20069;-61
2021/12/20 12:59:47;;;;;;;7.72;2.67;;;21.70;46.60;;;;;;5018223;28;20064;-61
2021/12/20 13:02:19;;;;;;;9.07;2.20;;;21.60;46.60;;;;;;5012751;28;20045;-61
2021/12/20 13:04:49;;;;;;;9.30;2.05;;;21.60;46.50;;;;;;5014697;28;20041;-61
2021/12/20 13:07:29;;;;;;;10.27;2.50;;;21.60;46.50;;;;;;5011698;28;35669;-62
2021/12/20 13:09:58;;;;;;;8.30;2.30;;;21.60;46.50;;;;;;5015156;28;20044;-61
2021/12/20 13:12:37;;;;;;;11.05;2.10;;;21.60;46.50;;;;;;5013425;28;20152;-62